Time;durP1;ratioP1;P1;durP2;ratioP2;P2;SDS_P1;SDS_P2;PMS_P1;PMS_P2;Temp;Humidity;BMP_temperature;BMP_pressure;BME280_temperature;BME280_humidity;BME280_pressure;Samples;Min_cycle;Max_cycle;Signal;HPM_P1;HPM_P2
2022/12/11 00:02:47;;;;;;;18.45;8.38;;;1.30;99.90;;;;;;10107097;28;20590;-60
2022/12/11 00:07:38;;;;;;;20.88;10.18;;;1.30;99.90;;;;;;10111792;28;20032;-61
2022/12/11 00:12:30;;;;;;;24.10;10.43;;;1.30;99.90;;;;;;10111676;28;20441;-68
2022/12/11 00:17:20;;;;;;;31.20;11.75;;;1.30;99.90;;;;;;10106922;28;20082;-63
2022/12/11 00:22:11;;;;;;;23.08;11.10;;;1.20;99.90;;;;;;10116176;28;20275;-56
2022/12/11 00:27:02;;;;;;;24.55;9.95;;;1.10;99.90;;;;;;10117318;28;20028;-59
2022/12/11 00:31:52;;;;;;;27.60;9.73;;;1.10;99.90;;;;;;10123919;28;20040;-63
2022/12/11 00:36:43;;;;;;;20.55;9.65;;;1.10;99.90;;;;;;10123183;28;20021;-61
2022/12/11 00:41:33;;;;;;;23.65;10.68;;;1.00;99.90;;;;;;10116799;28;20402;-60
2022/12/11 00:46:24;;;;;;;24.17;9.95;;;1.00;99.90;;;;;;10121750;28;20093;-64
2022/12/11 00:51:16;;;;;;;18.85;9.00;;;0.90;99.90;;;;;;10130026;28;20359;-64
2022/12/11 00:56:12;;;;;;;22.85;10.10;;;0.90;99.90;;;;;;10118015;28;20037;-57
2022/12/11 01:01:09;;;;;;;26.60;9.48;;;0.80;99.90;;;;;;10116700;28;20085;-59
2022/12/11 01:06:00;;;;;;;15.60;8.15;;;0.80;99.90;;;;;;10139523;28;20031;-63
2022/12/11 01:10:50;;;;;;;15.73;8.30;;;0.80;99.90;;;;;;10134155;28;20136;-69
2022/12/11 01:15:43;;;;;;;19.25;8.25;;;0.70;99.90;;;;;;10128786;28;20060;-67
2022/12/11 01:20:36;;;;;;;23.27;7.90;;;0.80;99.90;;;;;;10141274;28;20036;-61
2022/12/11 01:25:27;;;;;;;21.27;9.80;;;0.70;99.90;;;;;;10133758;28;20025;-60
2022/12/11 01:30:20;;;;;;;18.52;8.23;;;0.60;99.90;;;;;;10126927;28;20561;-59
2022/12/11 01:35:11;;;;;;;17.42;8.00;;;0.60;99.90;;;;;;10128214;28;20078;-58
2022/12/11 01:40:04;;;;;;;17.75;7.68;;;0.50;99.90;;;;;;10118260;28;20024;-58
2022/12/11 01:45:31;;;;;;;12.73;6.82;;;0.40;99.90;;;;;;10123668;28;20025;-58
2022/12/11 01:50:22;;;;;;;21.25;9.00;;;0.50;99.90;;;;;;10106761;28;20067;-56
2022/12/11 01:55:13;;;;;;;20.48;7.05;;;0.40;99.90;;;;;;10120233;28;20069;-59
2022/12/11 02:00:05;;;;;;;21.48;8.75;;;0.30;99.90;;;;;;10108665;28;20029;-55
2022/12/11 02:04:56;;;;;;;21.70;7.78;;;0.20;99.90;;;;;;10131247;28;20490;-57
2022/12/11 02:09:47;;;;;;;17.05;7.45;;;0.30;99.90;;;;;;10112621;28;20597;-57
2022/12/11 02:15:01;;;;;;;18.67;8.02;;;0.10;99.90;;;;;;10116516;28;20269;-58
2022/12/11 02:20:09;;;;;;;20.35;7.80;;;0.00;99.90;;;;;;10119758;28;20057;-57
2022/12/11 02:25:39;;;;;;;23.48;9.43;;;0.00;99.90;;;;;;10115865;28;20056;-56
2022/12/11 02:30:31;;;;;;;16.65;7.60;;;-0.20;99.90;;;;;;10123102;28;20045;-64
2022/12/11 02:35:31;;;;;;;18.25;7.55;;;-0.20;99.90;;;;;;10117686;28;20032;-63
2022/12/11 02:40:25;;;;;;;16.40;7.13;;;-0.10;99.90;;;;;;10114331;28;20103;-56
2022/12/11 02:45:18;;;;;;;25.23;8.60;;;-0.20;99.90;;;;;;10119459;28;20017;-62
2022/12/11 02:50:13;;;;;;;14.45;7.30;;;-0.30;99.90;;;;;;10106076;28;20017;-64
2022/12/11 02:55:06;;;;;;;16.50;7.50;;;-0.10;99.90;;;;;;10117639;28;20102;-56
2022/12/11 02:59:56;;;;;;;16.17;6.13;;;-0.10;99.90;;;;;;10103379;28;20017;-59
2022/12/11 03:04:47;;;;;;;15.50;6.47;;;-0.10;99.90;;;;;;10128119;28;20407;-60
2022/12/11 03:09:43;;;;;;;12.18;6.25;;;-0.10;99.90;;;;;;10120339;28;20043;-56
2022/12/11 03:14:35;;;;;;;16.52;5.65;;;-0.10;99.90;;;;;;10113133;28;20598;-56
2022/12/11 03:19:38;;;;;;;18.15;7.05;;;-0.10;99.90;;;;;;10122380;28;20059;-58
2022/12/11 03:24:59;;;;;;;14.40;5.20;;;-0.10;99.90;;;;;;10117153;28;20082;-57
2022/12/11 03:29:58;;;;;;;18.80;6.43;;;-0.10;99.90;;;;;;10107189;28;20120;-61
2022/12/11 03:34:58;;;;;;;13.77;5.65;;;-0.10;99.90;;;;;;10119204;28;20032;-66
2022/12/11 03:39:54;;;;;;;16.17;6.13;;;-0.20;99.90;;;;;;10112269;28;20029;-57
2022/12/11 03:44:48;;;;;;;16.00;6.63;;;-0.10;99.90;;;;;;10112789;28;20128;-59
2022/12/11 03:49:42;;;;;;;12.77;5.32;;;0.00;99.90;;;;;;10120047;28;20033;-60
2022/12/11 03:54:34;;;;;;;16.45;5.95;;;0.00;99.90;;;;;;10121800;28;20063;-58
2022/12/11 03:59:25;;;;;;;13.27;5.30;;;-0.10;99.90;;;;;;10116990;28;20029;-54
2022/12/11 04:04:16;;;;;;;15.10;6.15;;;0.00;99.90;;;;;;10109416;28;20028;-57
2022/12/11 04:09:06;;;;;;;12.57;5.88;;;0.20;99.90;;;;;;10118882;28;20004;-66
2022/12/11 04:24:17;;;;;;;19.48;5.78;;;0.20;99.90;;;;;;10114803;28;20113;-61
2022/12/11 04:29:08;;;;;;;12.75;6.18;;;0.50;99.90;;;;;;10111809;28;20116;-58
2022/12/11 04:33:58;;;;;;;18.20;5.13;;;0.40;99.90;;;;;;10126048;28;20063;-64
2022/12/11 04:38:49;;;;;;;16.25;6.13;;;0.40;99.90;;;;;;10107629;28;20355;-59
2022/12/11 04:43:40;;;;;;;15.90;6.57;;;0.50;99.90;;;;;;10105749;28;20491;-61
2022/12/11 04:48:31;;;;;;;17.05;6.20;;;0.60;99.90;;;;;;10103877;28;20029;-55
2022/12/11 04:53:22;;;;;;;24.55;7.10;;;0.70;99.90;;;;;;10100771;28;20676;-59
2022/12/11 04:58:12;;;;;;;14.30;5.85;;;0.60;99.90;;;;;;10115822;28;20056;-59
2022/12/11 05:03:03;;;;;;;17.13;6.45;;;0.60;99.90;;;;;;10111178;28;20040;-59
2022/12/11 05:07:54;;;;;;;18.50;5.40;;;0.60;99.90;;;;;;10117914;28;20025;-58
2022/12/11 05:12:44;;;;;;;15.10;6.43;;;0.60;99.90;;;;;;10115847;28;20044;-61
2022/12/11 05:17:35;;;;;;;13.27;6.03;;;0.50;99.90;;;;;;10123688;28;20391;-56
2022/12/11 05:22:26;;;;;;;15.45;6.80;;;0.40;99.90;;;;;;10119796;28;20123;-56
2022/12/11 05:27:16;;;;;;;20.10;6.95;;;0.40;99.90;;;;;;10117383;28;20502;-57
2022/12/11 05:32:07;;;;;;;13.55;6.93;;;0.40;99.90;;;;;;10138770;28;20565;-57
2022/12/11 05:36:57;;;;;;;15.73;5.88;;;0.40;99.90;;;;;;10111980;28;20073;-72
2022/12/11 05:41:48;;;;;;;15.40;6.57;;;0.40;99.90;;;;;;10109971;28;20029;-75
2022/12/11 05:46:39;;;;;;;15.50;5.65;;;0.40;99.90;;;;;;10121446;28;20068;-60
2022/12/11 05:51:33;;;;;;;20.10;7.47;;;0.50;99.90;;;;;;10126856;28;20037;-59
2022/12/11 05:56:29;;;;;;;15.75;5.72;;;0.60;99.90;;;;;;10116358;28;20079;-59
2022/12/11 06:01:23;;;;;;;14.02;6.28;;;0.50;99.90;;;;;;10111593;28;20072;-56
2022/12/11 06:06:14;;;;;;;13.63;6.28;;;0.50;99.90;;;;;;10128391;28;20028;-58
2022/12/11 06:11:06;;;;;;;14.38;5.90;;;0.50;99.90;;;;;;10114565;28;20048;-57
2022/12/11 06:16:01;;;;;;;14.35;5.78;;;0.40;99.90;;;;;;10123272;28;20013;-56
2022/12/11 06:20:52;;;;;;;15.90;6.53;;;0.40;99.90;;;;;;10133191;28;20024;-57
2022/12/11 06:25:42;;;;;;;18.42;6.95;;;0.40;99.90;;;;;;10113031;28;20037;-58
2022/12/11 06:30:33;;;;;;;16.05;6.40;;;0.30;99.90;;;;;;10122513;28;20486;-56
2022/12/11 06:35:24;;;;;;;18.45;6.78;;;0.20;99.90;;;;;;10118776;28;20107;-69
2022/12/11 06:40:15;;;;;;;16.15;5.15;;;0.30;99.90;;;;;;10117076;28;20016;-64
2022/12/11 06:45:06;;;;;;;16.92;6.75;;;0.30;99.90;;;;;;10109968;28;20040;-63
2022/12/11 06:49:57;;;;;;;12.65;6.07;;;0.30;99.90;;;;;;10096176;28;20025;-57
2022/12/11 06:54:48;;;;;;;16.67;7.10;;;0.30;99.90;;;;;;10116808;28;20239;-57
2022/12/11 06:59:39;;;;;;;16.73;6.88;;;0.40;99.90;;;;;;10103329;28;20086;-58
2022/12/11 07:04:30;;;;;;;18.00;7.50;;;0.40;99.90;;;;;;10120783;28;20028;-58
2022/12/11 07:09:21;;;;;;;19.85;7.60;;;0.10;99.90;;;;;;10133879;28;20096;-57
2022/12/11 07:14:12;;;;;;;27.23;9.50;;;0.10;99.90;;;;;;10120991;28;20028;-68
2022/12/11 07:19:03;;;;;;;16.63;8.20;;;0.10;99.90;;;;;;10138956;28;20025;-71
2022/12/11 07:23:54;;;;;;;20.90;9.27;;;0.30;99.90;;;;;;10119452;28;20487;-72
2022/12/11 07:28:45;;;;;;;26.98;9.73;;;0.10;99.90;;;;;;10120594;28;20027;-64
2022/12/11 07:33:36;;;;;;;23.70;8.68;;;0.00;99.90;;;;;;10123626;28;20036;-68
2022/12/11 07:38:26;;;;;;;19.60;8.68;;;0.10;99.90;;;;;;10138753;28;20020;-69
2022/12/11 07:43:17;;;;;;;25.08;8.48;;;0.20;99.90;;;;;;10124390;28;20036;-74
2022/12/11 07:48:07;;;;;;;20.38;8.38;;;0.20;99.90;;;;;;10120208;28;20037;-66
2022/12/11 07:52:58;;;;;;;16.73;7.72;;;0.50;99.90;;;;;;10122245;28;20040;-73
2022/12/11 07:57:49;;;;;;;18.83;8.10;;;0.50;99.90;;;;;;10108928;28;20147;-76
2022/12/11 08:02:39;;;;;;;18.23;8.05;;;0.50;99.90;;;;;;10123027;28;20406;-58
2022/12/11 08:07:32;;;;;;;22.88;8.25;;;0.50;99.90;;;;;;10117099;28;20021;-57
2022/12/11 08:12:23;;;;;;;18.83;7.38;;;0.60;99.90;;;;;;10107952;28;20077;-60
2022/12/11 08:17:14;;;;;;;21.35;8.57;;;0.70;99.90;;;;;;10115761;28;20024;-56
2022/12/11 08:22:04;;;;;;;19.17;8.25;;;0.90;99.90;;;;;;10124615;28;20031;-56
2022/12/11 08:26:55;;;;;;;23.10;9.40;;;0.80;99.90;;;;;;10112368;28;20029;-59
2022/12/11 08:31:46;;;;;;;17.55;8.32;;;0.70;99.90;;;;;;10124381;28;20054;-59
2022/12/11 08:36:36;;;;;;;20.33;8.65;;;0.90;99.90;;;;;;10116077;28;20017;-56
2022/12/11 08:41:29;;;;;;;20.02;8.45;;;1.00;99.90;;;;;;10111391;28;20123;-67
2022/12/11 08:46:22;;;;;;;21.88;8.23;;;1.20;99.90;;;;;;10125434;28;20096;-61
2022/12/11 08:51:16;;;;;;;19.73;8.10;;;1.00;99.90;;;;;;10117570;28;20574;-57
2022/12/11 08:56:10;;;;;;;13.15;7.20;;;1.10;99.90;;;;;;10117939;28;20041;-58
2022/12/11 09:01:10;;;;;;;21.65;8.02;;;1.10;99.90;;;;;;10123039;28;20028;-66
2022/12/11 09:06:04;;;;;;;13.35;6.65;;;1.20;99.90;;;;;;10140612;28;20032;-56
2022/12/11 09:10:58;;;;;;;21.80;7.57;;;1.10;99.90;;;;;;10142756;28;20077;-69
2022/12/11 09:15:49;;;;;;;19.38;6.40;;;1.10;99.90;;;;;;10126456;28;20025;-62
2022/12/11 09:20:43;;;;;;;16.50;6.80;;;1.10;99.90;;;;;;10137079;28;20028;-58
2022/12/11 09:25:33;;;;;;;20.48;7.10;;;1.20;99.90;;;;;;10140734;28;20025;-67
2022/12/11 09:30:24;;;;;;;14.27;6.38;;;1.30;99.90;;;;;;10126207;28;20035;-57
2022/12/11 09:35:15;;;;;;;12.50;4.53;;;1.40;99.90;;;;;;10136582;28;20029;-76
2022/12/11 09:40:08;;;;;;;13.45;6.60;;;1.30;99.90;;;;;;10118627;28;20505;-65
2022/12/11 09:45:06;;;;;;;16.30;6.35;;;1.30;99.90;;;;;;10124594;28;20035;-75
2022/12/11 09:50:10;;;;;;;13.43;6.28;;;1.20;99.90;;;;;;10115750;28;20025;-56
2022/12/11 09:55:11;;;;;;;10.63;5.70;;;1.30;99.90;;;;;;10138882;28;20053;-63
2022/12/11 10:00:10;;;;;;;12.50;6.28;;;1.20;99.90;;;;;;10120552;28;20017;-55
2022/12/11 10:05:30;;;;;;;12.85;5.72;;;1.50;99.90;;;;;;10138214;28;20032;-57
2022/12/11 10:10:26;;;;;;;12.23;5.10;;;1.70;99.90;;;;;;10110292;28;20495;-59
2022/12/11 10:15:49;;;;;;;15.55;6.38;;;1.80;99.90;;;;;;10123155;28;20452;-58
2022/12/11 10:20:41;;;;;;;12.73;5.45;;;1.70;99.90;;;;;;10068858;28;20491;-57
2022/12/11 10:25:39;;;;;;;11.77;5.65;;;1.90;99.90;;;;;;10105225;28;20036;-60
2022/12/11 10:30:36;;;;;;;15.02;6.97;;;2.00;99.90;;;;;;10124558;28;20070;-56
2022/12/11 10:35:40;;;;;;;14.30;8.75;;;2.20;99.90;;;;;;10118762;28;20036;-57
2022/12/11 10:40:34;;;;;;;16.67;7.43;;;2.30;99.90;;;;;;10128612;28;20036;-57
2022/12/11 10:45:25;;;;;;;15.65;6.90;;;2.00;99.90;;;;;;10122909;28;20241;-57
2022/12/11 10:50:25;;;;;;;12.18;7.32;;;1.90;99.90;;;;;;10119301;28;20247;-57
2022/12/11 10:55:27;;;;;;;18.17;6.30;;;1.90;99.90;;;;;;10115084;28;20072;-58
2022/12/11 11:00:39;;;;;;;12.50;5.88;;;1.90;99.90;;;;;;10109310;28;20487;-54
2022/12/11 11:05:35;;;;;;;17.90;7.15;;;1.70;99.90;;;;;;10122903;28;20017;-65
2022/12/11 11:10:26;;;;;;;15.25;6.25;;;1.60;99.90;;;;;;10124309;28;20036;-56
2022/12/11 11:15:28;;;;;;;18.75;7.70;;;1.80;99.90;;;;;;10115884;28;20040;-56
2022/12/11 11:20:23;;;;;;;16.88;6.85;;;1.80;99.90;;;;;;10123199;28;20025;-62
2022/12/11 11:25:32;;;;;;;12.38;6.40;;;1.80;99.90;;;;;;10122940;28;20662;-58
2022/12/11 11:30:26;;;;;;;18.17;7.70;;;1.60;99.90;;;;;;10125520;28;20025;-57
2022/12/11 11:35:21;;;;;;;14.57;7.05;;;1.70;99.90;;;;;;10110816;28;20029;-63
2022/12/11 11:40:30;;;;;;;15.88;7.28;;;1.60;99.90;;;;;;10108306;28;20032;-58
2022/12/11 11:45:46;;;;;;;19.08;8.07;;;2.00;99.90;;;;;;10117493;28;20277;-61
2022/12/11 11:50:40;;;;;;;;;;;1.90;99.90;;;;;;10056399;28;20384;-59
2022/12/11 11:55:42;;;;;;;13.20;6.32;;;2.10;99.90;;;;;;10102702;28;19917;-60
2022/12/11 12:00:33;;;;;;;14.93;7.45;;;2.00;99.90;;;;;;10102792;28;20491;-61
2022/12/11 12:05:42;;;;;;;17.60;6.90;;;2.10;99.90;;;;;;10130729;28;20033;-59
2022/12/11 12:10:50;;;;;;;20.63;8.23;;;2.40;99.90;;;;;;10111671;28;20160;-59
2022/12/11 12:15:53;;;;;;;14.90;7.85;;;2.50;99.90;;;;;;10115599;28;20246;-57
2022/12/11 12:21:35;;;;;;;12.20;6.75;;;2.60;99.90;;;;;;10112176;28;20063;-57
2022/12/11 12:26:35;;;;;;;22.92;8.05;;;2.60;99.90;;;;;;10013382;28;20097;-71
2022/12/11 12:31:47;;;;;;;19.25;7.57;;;2.70;99.90;;;;;;10123060;28;20112;-60
2022/12/11 12:36:52;;;;;;;14.65;8.20;;;2.80;99.90;;;;;;10112747;28;20198;-59
2022/12/11 12:41:46;;;;;;;17.50;7.82;;;2.70;99.90;;;;;;10109058;28;20044;-60
2022/12/11 12:47:04;;;;;;;16.98;8.23;;;2.60;99.90;;;;;;10117243;28;20049;-58
2022/12/11 12:51:55;;;;;;;19.60;8.15;;;2.50;99.90;;;;;;10116094;28;20039;-58
2022/12/11 12:56:47;;;;;;;15.10;6.93;;;2.60;99.90;;;;;;10100510;28;20048;-58
2022/12/11 13:01:38;;;;;;;16.73;7.20;;;2.50;99.90;;;;;;10120988;28;20027;-56
2022/12/11 13:06:46;;;;;;;17.27;7.20;;;2.70;99.90;;;;;;10121756;28;20386;-63
2022/12/11 13:11:36;;;;;;;16.67;7.32;;;2.70;99.90;;;;;;10120820;28;20161;-66
2022/12/11 13:16:41;;;;;;;20.15;6.95;;;2.60;99.90;;;;;;10120729;28;20215;-75
2022/12/11 13:21:33;;;;;;;23.95;9.15;;;2.40;99.90;;;;;;10125907;28;20376;-58
2022/12/11 13:26:29;;;;;;;18.33;6.93;;;2.00;99.90;;;;;;10103925;28;20056;-68
2022/12/11 13:31:21;;;;;;;20.42;8.65;;;2.00;99.90;;;;;;10123459;28;20492;-68
2022/12/11 13:36:12;;;;;;;22.58;10.43;;;2.10;99.90;;;;;;10107859;28;20471;-58
2022/12/11 13:41:08;;;;;;;24.63;10.82;;;2.10;99.90;;;;;;10106598;28;20048;-75
2022/12/11 13:46:12;;;;;;;22.30;8.40;;;1.90;99.90;;;;;;10123864;28;20017;-65
2022/12/11 13:51:04;;;;;;;21.90;9.05;;;1.60;99.90;;;;;;10116143;28;20040;-63
2022/12/11 13:56:05;;;;;;;22.65;10.75;;;1.60;99.90;;;;;;10113154;28;20045;-57
2022/12/11 14:01:12;;;;;;;18.17;8.23;;;1.60;99.90;;;;;;10116676;28;20035;-64
2022/12/11 14:06:03;;;;;;;20.05;9.38;;;1.50;99.90;;;;;;10142513;28;20021;-62
2022/12/11 14:10:54;;;;;;;26.13;7.82;;;1.40;99.90;;;;;;10127635;28;20030;-60
2022/12/11 14:15:45;;;;;;;21.00;7.38;;;1.30;99.90;;;;;;10126755;28;20039;-64
2022/12/11 14:20:36;;;;;;;18.63;8.20;;;1.40;99.90;;;;;;10129305;28;20025;-59
2022/12/11 14:25:27;;;;;;;18.83;8.05;;;1.40;99.90;;;;;;10116640;28;20025;-59
2022/12/11 14:30:24;;;;;;;17.85;7.10;;;1.30;99.90;;;;;;10117702;28;20012;-57
2022/12/11 14:35:31;;;;;;;14.00;6.15;;;1.20;99.90;;;;;;10117057;28;20520;-57
2022/12/11 14:40:27;;;;;;;16.27;7.03;;;1.30;99.90;;;;;;10113663;28;20044;-58
2022/12/11 14:45:35;;;;;;;12.65;5.10;;;1.40;99.90;;;;;;10119210;28;20155;-59
2022/12/11 14:50:46;;;;;;;17.90;6.50;;;1.40;99.90;;;;;;10116672;28;20157;-57
2022/12/11 14:55:38;;;;;;;16.70;7.47;;;1.40;99.90;;;;;;10104633;28;20052;-59
2022/12/11 15:00:30;;;;;;;21.45;8.10;;;1.30;99.90;;;;;;10110261;28;20032;-61
2022/12/11 15:05:21;;;;;;;10.90;5.85;;;1.20;99.90;;;;;;10113857;28;20045;-57
2022/12/11 15:10:27;;;;;;;17.45;7.57;;;1.30;99.90;;;;;;10113505;28;20398;-56
2022/12/11 15:15:18;;;;;;;;;;;1.30;99.90;;;;;;10115749;28;20068;-57
2022/12/11 15:20:22;;;;;;;15.45;6.43;;;1.20;99.90;;;;;;10126020;28;19962;-59
2022/12/11 15:25:19;;;;;;;13.55;6.13;;;1.10;99.90;;;;;;10116503;28;20030;-61
2022/12/11 15:30:20;;;;;;;14.88;5.43;;;1.20;99.90;;;;;;10117324;28;20058;-58
2022/12/11 15:35:25;;;;;;;20.35;6.45;;;1.10;99.90;;;;;;10124088;28;20036;-57
2022/12/11 15:40:16;;;;;;;16.00;6.82;;;1.10;99.90;;;;;;10107644;28;20028;-56
2022/12/11 15:45:15;;;;;;;14.77;5.90;;;1.10;99.90;;;;;;10108505;28;20039;-56
2022/12/11 15:50:22;;;;;;;12.68;4.93;;;1.20;99.90;;;;;;10125601;28;20053;-56
2022/12/11 15:55:14;;;;;;;16.95;6.47;;;1.30;99.90;;;;;;10105604;28;20096;-61
2022/12/11 16:00:05;;;;;;;17.92;5.80;;;1.40;99.90;;;;;;10106539;28;20182;-56
2022/12/11 16:04:56;;;;;;;11.85;5.80;;;1.40;99.90;;;;;;10120717;28;20017;-53
2022/12/11 16:09:47;;;;;;;14.55;6.20;;;1.50;99.90;;;;;;10118345;28;20033;-56
2022/12/11 16:14:38;;;;;;;14.32;6.47;;;1.30;99.90;;;;;;10111216;28;20128;-57
2022/12/11 16:19:29;;;;;;;15.05;6.32;;;1.20;99.90;;;;;;10128555;28;20093;-58
2022/12/11 16:24:19;;;;;;;21.08;6.90;;;1.20;99.90;;;;;;10113021;28;20028;-56
2022/12/11 16:29:10;;;;;;;19.10;8.27;;;1.10;99.90;;;;;;10103833;28;20028;-59
2022/12/11 16:34:01;;;;;;;15.57;6.47;;;1.10;99.90;;;;;;10116931;28;20044;-61
2022/12/11 16:38:51;;;;;;;14.95;6.47;;;1.20;99.90;;;;;;10108834;28;20029;-62
2022/12/11 16:43:42;;;;;;;15.13;5.55;;;1.00;99.90;;;;;;10113682;28;20104;-60
2022/12/11 16:48:33;;;;;;;12.00;4.55;;;1.00;99.90;;;;;;10132149;28;20032;-62
2022/12/11 16:53:24;;;;;;;12.40;5.43;;;1.00;99.90;;;;;;10118567;28;20048;-61
2022/12/11 16:58:18;;;;;;;14.32;6.38;;;0.80;99.90;;;;;;10110285;28;20461;-57
2022/12/11 17:03:09;;;;;;;19.55;6.88;;;0.90;99.90;;;;;;10119684;28;20040;-63
2022/12/11 17:08:00;;;;;;;15.02;6.03;;;1.00;99.90;;;;;;10129290;28;20020;-57
2022/12/11 17:12:50;;;;;;;20.92;7.82;;;0.90;99.90;;;;;;10122643;28;20048;-55
2022/12/11 17:17:42;;;;;;;14.73;6.70;;;0.90;99.90;;;;;;10134961;28;20035;-53
2022/12/11 17:22:33;;;;;;;19.80;8.85;;;0.90;99.90;;;;;;10133960;28;20032;-53
2022/12/11 17:27:24;;;;;;;24.40;10.50;;;1.00;99.90;;;;;;10128427;28;20020;-52
2022/12/11 17:32:16;;;;;;;21.92;9.00;;;0.90;99.90;;;;;;10131939;28;20049;-55
2022/12/11 17:37:07;;;;;;;21.13;7.32;;;0.80;99.90;;;;;;10107724;28;20110;-54
2022/12/11 17:41:57;;;;;;;16.85;6.50;;;0.90;99.90;;;;;;10120978;28;20568;-58
2022/12/11 17:46:48;;;;;;;18.63;7.18;;;0.80;99.90;;;;;;10127669;28;20043;-56
2022/12/11 17:51:38;;;;;;;19.35;8.02;;;0.80;99.90;;;;;;10118585;28;20064;-57
2022/12/11 17:56:32;;;;;;;22.83;7.55;;;0.70;99.90;;;;;;10117563;28;20075;-52
2022/12/11 18:01:23;;;;;;;13.57;7.60;;;0.70;99.90;;;;;;10115175;28;20108;-56
2022/12/11 18:06:14;;;;;;;22.40;7.97;;;0.70;99.90;;;;;;10125369;28;20112;-59
2022/12/11 18:11:15;;;;;;;15.27;6.80;;;0.80;99.90;;;;;;10112250;28;20070;-55
2022/12/11 18:16:16;;;;;;;20.80;6.80;;;0.70;99.90;;;;;;10117016;28;20403;-56
2022/12/11 18:21:06;;;;;;;18.55;5.45;;;0.60;99.90;;;;;;10128602;28;20017;-57
2022/12/11 18:25:57;;;;;;;17.23;6.20;;;0.50;99.90;;;;;;10125574;28;20556;-54
2022/12/11 18:30:48;;;;;;;17.80;6.90;;;0.40;99.90;;;;;;10122622;28;20028;-59
2022/12/11 18:35:40;;;;;;;19.95;7.00;;;0.40;99.90;;;;;;10113990;28;20047;-59
2022/12/11 18:40:30;;;;;;;15.00;7.38;;;0.50;99.90;;;;;;10125745;28;20025;-57
2022/12/11 18:45:21;;;;;;;17.33;6.40;;;0.40;99.90;;;;;;10122966;28;20035;-53
2022/12/11 18:50:13;;;;;;;17.60;8.32;;;0.40;99.90;;;;;;10124524;28;20058;-61
2022/12/11 18:55:04;;;;;;;16.90;6.47;;;0.50;99.90;;;;;;10118657;28;20415;-65
2022/12/11 18:59:55;;;;;;;21.60;7.85;;;0.40;99.90;;;;;;10128775;28;20123;-68
2022/12/11 19:04:45;;;;;;;15.95;6.68;;;0.40;99.90;;;;;;10114605;28;20143;-70
2022/12/11 19:09:36;;;;;;;15.85;7.78;;;0.30;99.90;;;;;;10114598;28;20029;-67
2022/12/11 19:14:27;;;;;;;22.25;8.85;;;0.30;99.90;;;;;;10136855;28;20035;-67
2022/12/11 19:19:20;;;;;;;13.02;6.85;;;0.30;99.90;;;;;;10129450;28;20028;-67
2022/12/11 19:24:14;;;;;;;21.73;8.30;;;0.40;99.90;;;;;;10134805;28;20020;-67
2022/12/11 19:29:05;;;;;;;23.58;10.73;;;0.30;99.90;;;;;;10124442;28;20025;-69
2022/12/11 19:33:56;;;;;;;17.50;8.07;;;0.30;99.90;;;;;;10114110;28;20040;-65
2022/12/11 19:38:47;;;;;;;16.70;8.20;;;0.00;99.90;;;;;;10109998;28;20108;-70
2022/12/11 19:43:38;;;;;;;17.58;7.28;;;0.00;99.90;;;;;;10114427;28;20034;-70
2022/12/11 19:48:29;;;;;;;21.83;7.63;;;0.00;99.90;;;;;;10124332;28;20017;-62
2022/12/11 19:53:20;;;;;;;15.13;7.03;;;0.10;99.90;;;;;;10103343;28;20052;-65
2022/12/11 19:58:14;;;;;;;19.08;7.95;;;0.30;99.90;;;;;;10111514;28;20064;-68
2022/12/11 20:03:05;;;;;;;18.50;8.35;;;0.30;99.90;;;;;;10119560;28;20458;-64
2022/12/11 20:07:57;;;;;;;20.27;7.57;;;0.20;99.90;;;;;;10110692;28;20068;-64
2022/12/11 20:12:48;;;;;;;18.15;7.95;;;0.20;99.90;;;;;;10129987;28;20044;-65
2022/12/11 20:17:43;;;;;;;19.13;7.88;;;0.40;99.90;;;;;;10113542;28;20116;-68
2022/12/11 20:22:33;;;;;;;18.60;9.15;;;0.20;99.90;;;;;;10138704;28;20116;-62
2022/12/11 20:27:27;;;;;;;23.40;10.95;;;0.00;99.90;;;;;;10127470;28;20522;-74
2022/12/11 20:32:18;;;;;;;28.25;10.90;;;-0.10;99.90;;;;;;10129909;28;20020;-62
2022/12/11 20:37:08;;;;;;;27.17;10.48;;;0.10;99.90;;;;;;10111249;28;20028;-63
2022/12/11 20:42:03;;;;;;;19.05;8.68;;;0.20;99.90;;;;;;10127481;28;20017;-65
2022/12/11 20:46:54;;;;;;;19.60;8.27;;;0.20;99.90;;;;;;10124795;28;20036;-63
2022/12/11 20:51:44;;;;;;;17.70;7.35;;;0.20;99.90;;;;;;10113409;28;20062;-65
2022/12/11 20:56:36;;;;;;;17.85;6.85;;;0.30;99.90;;;;;;10128098;28;20053;-62
2022/12/11 21:01:30;;;;;;;14.80;6.05;;;0.40;99.90;;;;;;10134070;28;20028;-63
2022/12/11 21:06:24;;;;;;;13.38;5.90;;;0.40;99.90;;;;;;10136538;28;20661;-62
2022/12/11 21:11:15;;;;;;;19.45;6.70;;;0.50;99.90;;;;;;10139837;28;20031;-64
2022/12/11 21:16:07;;;;;;;12.55;5.90;;;0.60;99.90;;;;;;10127759;28;20038;-64
2022/12/11 21:20:57;;;;;;;17.42;6.70;;;0.60;99.90;;;;;;10125358;28;20052;-62
2022/12/11 21:26:14;;;;;;;18.45;6.47;;;0.60;99.90;;;;;;10125673;28;20118;-63
2022/12/11 21:31:07;;;;;;;16.23;6.18;;;0.60;99.90;;;;;;10141855;28;20521;-64
2022/12/11 21:35:59;;;;;;;15.77;6.13;;;0.60;99.90;;;;;;10133835;28;20040;-61
2022/12/11 21:40:51;;;;;;;15.73;6.20;;;0.60;99.90;;;;;;10123268;28;20207;-61
2022/12/11 21:45:41;;;;;;;19.25;6.93;;;0.60;99.90;;;;;;10107546;28;20050;-60
2022/12/11 21:50:32;;;;;;;22.58;8.43;;;0.40;99.90;;;;;;10138516;28;20037;-60
2022/12/11 21:55:23;;;;;;;17.77;7.63;;;0.50;99.90;;;;;;10137976;28;20044;-60
2022/12/11 22:00:14;;;;;;;19.85;8.40;;;0.40;99.90;;;;;;10129542;28;20037;-60
2022/12/11 22:05:06;;;;;;;18.23;8.27;;;0.40;99.90;;;;;;10134838;28;20051;-60
2022/12/11 22:09:56;;;;;;;13.88;5.75;;;0.40;99.90;;;;;;10123961;28;20040;-61
2022/12/11 22:14:47;;;;;;;19.38;8.23;;;0.40;99.90;;;;;;10126761;28;20041;-60
2022/12/11 22:19:38;;;;;;;17.70;7.50;;;0.30;99.90;;;;;;10113954;28;20033;-61
2022/12/11 22:24:29;;;;;;;18.45;7.47;;;0.30;99.90;;;;;;10118270;28;20248;-60
2022/12/11 22:29:19;;;;;;;15.27;6.65;;;0.30;99.90;;;;;;10117357;28;20036;-60
2022/12/11 22:34:10;;;;;;;20.38;7.45;;;0.20;99.90;;;;;;10121698;28;20033;-60
2022/12/11 22:39:00;;;;;;;23.50;7.35;;;0.30;99.90;;;;;;10111900;28;20074;-61
2022/12/11 22:43:51;;;;;;;19.02;7.35;;;0.40;99.90;;;;;;10123562;28;20093;-67
2022/12/11 22:48:42;;;;;;;22.08;8.23;;;0.40;99.90;;;;;;10110150;28;20017;-66
2022/12/11 22:53:33;;;;;;;17.85;7.03;;;0.40;99.90;;;;;;10112872;28;20037;-65
2022/12/11 22:58:23;;;;;;;22.08;7.78;;;0.40;99.90;;;;;;10109182;28;20156;-65
2022/12/11 23:03:15;;;;;;;13.68;6.00;;;0.40;99.90;;;;;;10118645;28;20041;-62
2022/12/11 23:08:06;;;;;;;16.10;7.38;;;0.50;99.90;;;;;;10115807;28;20483;-62
2022/12/11 23:12:56;;;;;;;17.17;6.95;;;0.40;99.90;;;;;;10121187;28;20033;-60
2022/12/11 23:17:47;;;;;;;13.88;7.40;;;0.20;99.90;;;;;;10110749;28;20111;-60
2022/12/11 23:22:37;;;;;;;17.67;7.10;;;0.30;99.90;;;;;;10120517;28;20013;-61
2022/12/11 23:27:28;;;;;;;15.45;6.03;;;0.50;99.90;;;;;;10121751;28;20441;-60
2022/12/11 23:32:19;;;;;;;24.75;8.75;;;0.10;99.90;;;;;;10120722;28;20044;-63
2022/12/11 23:37:09;;;;;;;19.25;9.05;;;0.00;99.90;;;;;;10106865;28;20151;-61
2022/12/11 23:42:00;;;;;;;16.02;7.18;;;-0.10;99.90;;;;;;10130511;28;20025;-60
2022/12/11 23:46:51;;;;;;;19.17;6.75;;;-0.20;99.90;;;;;;10112930;28;20025;-60
2022/12/11 23:51:41;;;;;;;14.55;6.60;;;-0.20;99.90;;;;;;10114711;28;20048;-61
2022/12/11 23:56:32;;;;;;;16.98;6.90;;;-0.10;99.90;;;;;;10115808;28;20122;-63
